Time;durP1;ratioP1;P1;durP2;ratioP2;P2;SDS_P1;SDS_P2;PMS_P1;PMS_P2;Temp;Humidity;BMP_temperature;BMP_pressure;BME280_temperature;BME280_humidity;BME280_pressure;Samples;Min_cycle;Max_cycle;Signal;HPM_P1;HPM_P2
2023/12/31 00:01:26;;;;;;;7.87;5.90;;;10.90;62.10;;;;;;5008583;28;20952;-60
2023/12/31 00:03:52;;;;;;;6.73;5.77;;;10.80;61.60;;;;;;5005427;28;20252;-58
2023/12/31 00:06:17;;;;;;;8.80;5.97;;;10.70;62.10;;;;;;5002834;28;20468;-59
2023/12/31 00:08:43;;;;;;;7.47;6.00;;;10.60;62.80;;;;;;5005769;28;20233;-61
2023/12/31 00:11:10;;;;;;;7.07;6.37;;;10.60;62.80;;;;;;5005935;28;20272;-59
2023/12/31 00:13:35;;;;;;;7.80;5.73;;;10.70;62.70;;;;;;5006089;28;20190;-60
2023/12/31 00:16:01;;;;;;;6.60;5.40;;;10.70;62.30;;;;;;4998393;28;20523;-60
2023/12/31 00:18:26;;;;;;;8.13;6.67;;;10.80;62.00;;;;;;4995809;28;20186;-59
2023/12/31 00:20:52;;;;;;;9.37;6.47;;;10.90;61.90;;;;;;4998900;28;20198;-57
2023/12/31 00:23:17;;;;;;;7.63;5.80;;;11.00;61.40;;;;;;5001899;28;20218;-59
2023/12/31 00:25:43;;;;;;;7.57;5.50;;;11.00;60.90;;;;;;4995929;28;20206;-62
2023/12/31 00:28:08;;;;;;;8.03;5.00;;;11.00;60.90;;;;;;5005512;28;20225;-58
2023/12/31 00:30:35;;;;;;;6.30;5.23;;;11.10;60.80;;;;;;5008066;28;20206;-58
2023/12/31 00:33:01;;;;;;;6.57;5.97;;;11.10;60.40;;;;;;5005713;28;20654;-59
2023/12/31 00:35:26;;;;;;;9.43;6.80;;;11.10;60.00;;;;;;5005304;28;20888;-59
2023/12/31 00:37:52;;;;;;;7.80;6.43;;;11.10;60.10;;;;;;5005531;28;20536;-57
2023/12/31 00:40:17;;;;;;;7.13;6.33;;;11.00;59.50;;;;;;5005585;28;20198;-60
2023/12/31 00:42:43;;;;;;;7.20;6.50;;;10.90;60.00;;;;;;5005457;28;20558;-62
2023/12/31 00:45:09;;;;;;;7.90;6.30;;;10.70;59.90;;;;;;5001534;28;20182;-59
2023/12/31 00:47:34;;;;;;;8.10;6.50;;;10.80;60.30;;;;;;5005859;28;20231;-59
2023/12/31 00:50:00;;;;;;;10.73;6.20;;;10.80;60.10;;;;;;5001758;28;20182;-60
2023/12/31 00:52:25;;;;;;;7.97;6.20;;;10.70;59.80;;;;;;5006013;28;20273;-61
2023/12/31 00:54:52;;;;;;;6.67;6.00;;;10.60;60.10;;;;;;5004097;28;20221;-61
2023/12/31 00:57:18;;;;;;;8.00;6.57;;;10.20;61.40;;;;;;5000399;28;20218;-60
2023/12/31 00:59:44;;;;;;;10.03;6.70;;;10.40;61.70;;;;;;4998771;28;21031;-59
2023/12/31 01:02:09;;;;;;;12.83;8.13;;;10.50;61.20;;;;;;5002639;28;20473;-60
2023/12/31 01:04:36;;;;;;;9.30;7.70;;;10.60;60.60;;;;;;5003476;28;20222;-60
2023/12/31 01:07:02;;;;;;;8.70;7.80;;;10.70;60.20;;;;;;5010243;28;20234;-60
2023/12/31 01:09:27;;;;;;;8.60;7.00;;;10.60;60.10;;;;;;5011067;28;20999;-60
2023/12/31 01:11:53;;;;;;;9.47;8.67;;;10.60;60.00;;;;;;5007920;28;20480;-60
2023/12/31 01:14:19;;;;;;;7.47;6.77;;;10.40;59.70;;;;;;5010703;28;20190;-59
2023/12/31 01:16:44;;;;;;;7.40;5.90;;;10.30;60.50;;;;;;5006742;28;20222;-59
2023/12/31 01:19:10;;;;;;;8.17;7.27;;;10.30;60.50;;;;;;5009533;28;20183;-60
2023/12/31 01:21:35;;;;;;;14.73;10.00;;;10.30;60.50;;;;;;5008498;28;20285;-61
2023/12/31 01:24:01;;;;;;;11.13;10.10;;;10.40;60.40;;;;;;5009186;28;20193;-58
2023/12/31 01:26:27;;;;;;;7.53;6.83;;;10.40;60.00;;;;;;5002387;28;20682;-57
2023/12/31 01:28:52;;;;;;;8.10;7.27;;;10.30;60.00;;;;;;4997198;28;20225;-58
2023/12/31 01:31:19;;;;;;;8.90;7.00;;;10.30;59.60;;;;;;5008896;28;20299;-61
2023/12/31 01:33:44;;;;;;;10.97;6.57;;;9.90;61.80;;;;;;4998381;28;20205;-61
2023/12/31 01:36:16;;;;;;;7.80;7.00;;;9.70;62.30;;;;;;4998853;28;20816;-60
2023/12/31 01:38:45;;;;;;;7.40;6.70;;;9.60;63.00;;;;;;5010873;28;20186;-61
2023/12/31 01:41:11;;;;;;;8.50;5.80;;;9.60;63.70;;;;;;5001733;28;20433;-59
2023/12/31 01:43:37;;;;;;;8.30;7.40;;;9.70;63.50;;;;;;5009602;28;20582;-62
2023/12/31 01:46:08;;;;;;;6.70;5.90;;;9.90;63.20;;;;;;5001796;28;21299;-58
2023/12/31 01:48:35;;;;;;;9.60;7.00;;;10.00;61.40;;;;;;5010769;28;20267;-59
2023/12/31 01:51:02;;;;;;;8.23;6.60;;;10.00;60.60;;;;;;5001951;28;20515;-60
2023/12/31 01:53:28;;;;;;;7.57;6.77;;;9.90;61.80;;;;;;5003398;28;20421;-58
2023/12/31 01:55:55;;;;;;;7.07;6.20;;;9.90;61.80;;;;;;5000023;28;20953;-60
2023/12/31 01:58:22;;;;;;;7.07;6.07;;;10.00;60.40;;;;;;5007417;28;20949;-56
2023/12/31 02:00:48;;;;;;;9.47;7.10;;;10.00;60.00;;;;;;5007641;28;20445;-58
2023/12/31 02:03:15;;;;;;;8.30;6.70;;;10.00;59.70;;;;;;5006290;28;20460;-59
2023/12/31 02:05:41;;;;;;;6.23;5.63;;;10.10;60.10;;;;;;5006045;28;20476;-60
2023/12/31 02:08:07;;;;;;;7.73;5.60;;;10.10;59.40;;;;;;5007320;28;20477;-59
2023/12/31 02:10:32;;;;;;;6.53;5.30;;;10.10;59.30;;;;;;5009821;28;20471;-60
2023/12/31 02:12:59;;;;;;;5.60;4.97;;;10.00;59.50;;;;;;5009161;28;20182;-60
2023/12/31 02:15:31;;;;;;;7.43;5.23;;;10.00;59.80;;;;;;5005215;28;20253;-62
2023/12/31 02:17:59;;;;;;;5.90;5.10;;;9.90;61.30;;;;;;5001143;28;20484;-61
2023/12/31 02:20:24;;;;;;;5.30;4.73;;;9.90;61.70;;;;;;5008889;28;20910;-62
2023/12/31 02:22:50;;;;;;;5.90;4.93;;;9.80;62.00;;;;;;5007339;28;20479;-59
2023/12/31 02:25:19;;;;;;;5.73;5.07;;;9.80;62.00;;;;;;5006207;28;20233;-59
2023/12/31 02:27:44;;;;;;;6.97;5.60;;;9.80;62.00;;;;;;5004762;28;20233;-59
2023/12/31 02:30:10;;;;;;;8.73;5.20;;;9.80;62.20;;;;;;5006971;28;20441;-61
2023/12/31 02:32:36;;;;;;;8.00;5.97;;;9.40;63.30;;;;;;5009156;28;20198;-60
2023/12/31 02:35:03;;;;;;;8.53;6.20;;;9.40;63.50;;;;;;5004090;28;20205;-59
2023/12/31 02:37:29;;;;;;;7.50;5.83;;;9.10;64.00;;;;;;5007363;28;20193;-59
2023/12/31 02:39:55;;;;;;;10.00;6.83;;;9.00;64.90;;;;;;5004414;28;20441;-59
2023/12/31 02:42:20;;;;;;;9.10;6.30;;;9.20;64.80;;;;;;5006669;28;20200;-57
2023/12/31 02:44:46;;;;;;;5.73;5.13;;;9.30;63.90;;;;;;5006556;28;20178;-60
2023/12/31 02:47:12;;;;;;;11.17;5.63;;;9.30;63.40;;;;;;5007473;28;20237;-58
2023/12/31 02:49:38;;;;;;;6.27;4.90;;;9.40;63.20;;;;;;5008067;28;20221;-61
2023/12/31 02:52:03;;;;;;;6.80;5.47;;;9.40;63.10;;;;;;5004835;28;20442;-59
2023/12/31 02:54:29;;;;;;;7.00;5.17;;;9.20;63.50;;;;;;5005879;28;20244;-61
2023/12/31 02:56:54;;;;;;;6.10;5.20;;;9.10;64.00;;;;;;5005682;28;20716;-59
2023/12/31 02:59:20;;;;;;;7.33;6.00;;;9.00;64.90;;;;;;5009489;28;20815;-58
2023/12/31 03:01:46;;;;;;;7.13;5.33;;;9.10;64.70;;;;;;5004633;28;20248;-60
2023/12/31 03:04:11;;;;;;;6.03;4.70;;;9.10;64.60;;;;;;5005324;28;20198;-58
2023/12/31 03:06:40;;;;;;;5.93;4.80;;;9.20;65.00;;;;;;5007994;28;20565;-57
2023/12/31 03:09:06;;;;;;;5.33;4.50;;;9.30;65.00;;;;;;5007484;28;20217;-60
2023/12/31 03:11:33;;;;;;;6.17;4.83;;;9.40;64.60;;;;;;5005155;28;20441;-58
2023/12/31 03:13:59;;;;;;;6.13;4.60;;;9.40;64.50;;;;;;5008216;28;20428;-61
2023/12/31 03:16:25;;;;;;;6.97;5.50;;;9.40;64.70;;;;;;5006525;28;20886;-61
2023/12/31 03:18:54;;;;;;;5.67;4.87;;;9.20;65.20;;;;;;5007022;28;20940;-60
2023/12/31 03:21:19;;;;;;;7.33;5.57;;;8.90;66.90;;;;;;5007420;28;20688;-60
2023/12/31 03:23:45;;;;;;;6.63;4.93;;;9.00;67.60;;;;;;5007896;28;20436;-60
2023/12/31 03:26:11;;;;;;;5.73;4.90;;;8.90;67.60;;;;;;5001744;28;20221;-59
2023/12/31 03:28:37;;;;;;;6.00;5.23;;;8.80;68.20;;;;;;5001280;28;20854;-58
2023/12/31 03:31:03;;;;;;;5.80;4.70;;;8.70;69.00;;;;;;4996771;28;20190;-59
2023/12/31 03:33:29;;;;;;;5.17;4.63;;;8.60;69.40;;;;;;4997777;28;20186;-59
2023/12/31 03:35:55;;;;;;;6.67;4.07;;;8.50;69.70;;;;;;4998321;28;20483;-58
2023/12/31 03:38:21;;;;;;;5.77;4.60;;;8.70;70.00;;;;;;5006822;28;20456;-57
2023/12/31 03:40:46;;;;;;;4.73;4.10;;;8.80;69.40;;;;;;5007019;28;20614;-59
2023/12/31 03:43:12;;;;;;;6.47;4.17;;;9.10;68.80;;;;;;5007955;28;20209;-58
2023/12/31 03:45:38;;;;;;;4.47;4.07;;;9.20;67.70;;;;;;5004563;28;20209;-59
2023/12/31 03:48:04;;;;;;;4.63;3.80;;;9.50;67.00;;;;;;5005998;28;20253;-57
2023/12/31 03:50:29;;;;;;;4.70;4.03;;;9.70;65.80;;;;;;5001314;28;20186;-59
2023/12/31 03:52:55;;;;;;;5.50;4.37;;;10.00;64.00;;;;;;5002523;28;20499;-59
2023/12/31 03:55:21;;;;;;;9.93;3.77;;;10.00;62.80;;;;;;5005645;28;20209;-59
2023/12/31 03:57:46;;;;;;;4.17;3.73;;;10.00;62.80;;;;;;5003455;28;20276;-58
2023/12/31 04:00:12;;;;;;;4.43;3.60;;;10.00;62.30;;;;;;5007484;28;20189;-59
2023/12/31 04:02:38;;;;;;;4.83;3.90;;;10.10;62.20;;;;;;5006394;28;20193;-59
2023/12/31 04:05:04;;;;;;;4.20;3.80;;;10.00;62.10;;;;;;5006218;28;20494;-58
2023/12/31 04:07:30;;;;;;;3.57;3.10;;;10.00;62.20;;;;;;5006488;28;20575;-59
2023/12/31 04:09:56;;;;;;;3.87;3.50;;;10.10;62.20;;;;;;5005488;28;20436;-58
2023/12/31 04:12:22;;;;;;;4.30;3.10;;;10.00;62.20;;;;;;5006304;28;20220;-58
2023/12/31 04:14:47;;;;;;;3.57;2.80;;;9.80;63.40;;;;;;5004401;28;20428;-59
2023/12/31 04:17:13;;;;;;;4.20;3.13;;;9.70;64.10;;;;;;5007349;28;20205;-58
2023/12/31 04:19:38;;;;;;;3.20;2.60;;;9.60;64.20;;;;;;5005978;28;20186;-58
2023/12/31 04:22:04;;;;;;;3.37;2.90;;;9.60;64.40;;;;;;5006599;28;20269;-58
2023/12/31 04:24:29;;;;;;;4.90;3.00;;;9.60;63.70;;;;;;5007097;28;20726;-59
2023/12/31 04:26:57;;;;;;;3.00;2.50;;;9.70;63.80;;;;;;5000754;28;20616;-60
2023/12/31 04:29:22;;;;;;;4.00;2.40;;;9.80;63.10;;;;;;5007748;28;20697;-59
2023/12/31 04:31:48;;;;;;;4.20;3.47;;;9.90;62.70;;;;;;5000651;28;20469;-59
2023/12/31 04:34:14;;;;;;;2.53;2.33;;;10.00;61.00;;;;;;5005807;28;20182;-59
2023/12/31 04:36:43;;;;;;;4.03;3.53;;;9.90;61.60;;;;;;5005873;28;20735;-58
2023/12/31 04:39:10;;;;;;;2.60;2.40;;;9.80;62.00;;;;;;5005693;28;20190;-59
2023/12/31 04:41:35;;;;;;;3.03;2.50;;;9.80;61.60;;;;;;5006811;28;20445;-58
2023/12/31 04:44:01;;;;;;;5.10;2.60;;;9.80;62.10;;;;;;5010054;28;20452;-60
2023/12/31 04:46:26;;;;;;;3.17;2.63;;;9.80;62.00;;;;;;5008726;28;20232;-59
2023/12/31 04:48:52;;;;;;;2.40;2.13;;;9.90;61.80;;;;;;5008809;28;20308;-57
2023/12/31 04:51:25;;;;;;;4.80;3.30;;;10.00;60.20;;;;;;4998574;28;20281;-59
2023/12/31 04:53:51;;;;;;;2.50;2.20;;;10.00;60.50;;;;;;5008685;28;20189;-58
2023/12/31 04:56:21;;;;;;;3.03;2.77;;;9.90;62.20;;;;;;5010863;28;20873;-59
2023/12/31 04:58:56;;;;;;;2.40;2.20;;;9.90;61.80;;;;;;5011332;28;20447;-58
2023/12/31 05:01:22;;;;;;;2.60;2.13;;;9.90;61.80;;;;;;5010789;28;20520;-59
2023/12/31 05:03:49;;;;;;;3.30;2.20;;;10.10;60.20;;;;;;5004599;28;20451;-59
2023/12/31 05:06:15;;;;;;;4.53;2.50;;;10.20;59.80;;;;;;5006150;28;20460;-59
2023/12/31 05:08:45;;;;;;;2.47;2.27;;;10.20;59.80;;;;;;5006682;28;20853;-58
2023/12/31 05:11:12;;;;;;;2.43;2.23;;;10.10;59.70;;;;;;5009822;28;20453;-57
2023/12/31 05:13:39;;;;;;;3.37;3.07;;;10.20;59.50;;;;;;5009947;28;21178;-57
2023/12/31 05:16:15;;;;;;;3.50;2.30;;;10.10;59.40;;;;;;5009802;28;20467;-58
2023/12/31 05:18:43;;;;;;;2.87;2.60;;;10.10;59.80;;;;;;5009263;28;21240;-60
2023/12/31 05:21:09;;;;;;;2.97;2.10;;;10.30;59.40;;;;;;5010258;28;20448;-58
2023/12/31 05:23:35;;;;;;;2.30;2.10;;;10.30;58.90;;;;;;5007664;28;20521;-58
2023/12/31 05:26:01;;;;;;;2.00;1.90;;;10.40;58.80;;;;;;5007481;28;20597;-59
2023/12/31 05:28:26;;;;;;;2.47;2.20;;;10.40;58.20;;;;;;5006318;28;20280;-58
2023/12/31 05:30:52;;;;;;;2.60;2.40;;;10.30;58.40;;;;;;5010401;28;20273;-59
2023/12/31 05:33:17;;;;;;;2.30;2.10;;;10.50;58.30;;;;;;5008855;28;20244;-59
2023/12/31 05:35:43;;;;;;;2.57;2.37;;;10.40;58.10;;;;;;5007394;28;20666;-59
2023/12/31 05:38:09;;;;;;;3.57;2.57;;;10.60;58.00;;;;;;5008846;28;20592;-57
2023/12/31 05:40:34;;;;;;;2.60;2.07;;;10.60;57.80;;;;;;5011514;28;20186;-58
2023/12/31 05:43:00;;;;;;;2.50;2.30;;;10.60;57.20;;;;;;5008016;28;20276;-59
2023/12/31 05:45:25;;;;;;;3.03;2.37;;;10.70;57.30;;;;;;5003568;28;20212;-59
2023/12/31 05:47:51;;;;;;;3.03;2.10;;;10.80;57.00;;;;;;5008004;28;20261;-59
2023/12/31 05:50:17;;;;;;;2.23;1.93;;;10.90;56.70;;;;;;5006377;28;20210;-59
2023/12/31 05:52:43;;;;;;;2.23;1.93;;;10.80;56.60;;;;;;5009216;28;20261;-60
2023/12/31 05:55:09;;;;;;;2.00;1.90;;;11.00;56.50;;;;;;5003866;28;20183;-59
2023/12/31 05:57:34;;;;;;;4.03;2.27;;;11.00;56.30;;;;;;5007054;28;20433;-59
2023/12/31 06:00:01;;;;;;;2.57;2.30;;;11.10;56.10;;;;;;5005432;28;20197;-59
2023/12/31 06:02:26;;;;;;;2.27;2.07;;;11.20;56.00;;;;;;5002771;28;20657;-58
2023/12/31 06:04:52;;;;;;;2.00;1.80;;;11.20;55.60;;;;;;4998004;28;20452;-59
2023/12/31 06:07:17;;;;;;;3.37;2.60;;;11.30;55.50;;;;;;5001050;28;20217;-58
2023/12/31 06:09:45;;;;;;;2.53;2.17;;;11.20;55.50;;;;;;5008435;28;20729;-59
2023/12/31 06:12:10;;;;;;;2.87;2.20;;;11.20;55.60;;;;;;5003204;28;20944;-59
2023/12/31 06:14:36;;;;;;;2.50;2.30;;;11.20;55.60;;;;;;5006770;28;20544;-59
2023/12/31 06:17:02;;;;;;;3.17;2.40;;;11.10;55.50;;;;;;5005854;28;20973;-58
2023/12/31 06:19:27;;;;;;;3.03;2.30;;;11.00;55.80;;;;;;5002865;28;20194;-59
2023/12/31 06:21:53;;;;;;;2.73;2.30;;;11.00;56.20;;;;;;5007656;28;20559;-59
2023/12/31 06:24:18;;;;;;;2.77;2.57;;;10.90;56.40;;;;;;5000578;28;20190;-59
2023/12/31 06:26:44;;;;;;;2.90;2.60;;;10.90;56.50;;;;;;4998094;28;20232;-59
2023/12/31 06:29:09;;;;;;;3.90;2.90;;;10.90;56.40;;;;;;4995750;28;20213;-60
2023/12/31 06:31:35;;;;;;;3.20;2.53;;;10.80;56.70;;;;;;5007210;28;20293;-58
2023/12/31 06:34:01;;;;;;;3.37;2.80;;;10.70;56.50;;;;;;5007204;28;20240;-59
2023/12/31 06:36:26;;;;;;;2.77;2.43;;;10.70;56.80;;;;;;5009589;28;20962;-59
2023/12/31 06:38:52;;;;;;;3.30;2.70;;;10.90;57.30;;;;;;5009264;28;20661;-59
2023/12/31 06:41:21;;;;;;;2.97;2.63;;;11.20;57.60;;;;;;5009046;28;20202;-58
2023/12/31 06:43:47;;;;;;;3.30;2.27;;;11.50;57.50;;;;;;5004650;28;20190;-58
2023/12/31 06:46:12;;;;;;;5.57;4.10;;;11.70;56.80;;;;;;5004608;28;20852;-59
2023/12/31 06:48:38;;;;;;;5.03;3.20;;;11.50;55.90;;;;;;5005609;28;20477;-59
2023/12/31 06:51:05;;;;;;;7.50;3.53;;;11.50;56.20;;;;;;5006041;28;20661;-60
2023/12/31 06:53:30;;;;;;;4.33;3.40;;;11.60;56.60;;;;;;5008094;28;20192;-59
2023/12/31 06:55:56;;;;;;;5.77;3.90;;;11.50;56.00;;;;;;5007195;28;20461;-58
2023/12/31 06:58:21;;;;;;;4.30;3.90;;;11.50;56.10;;;;;;5008259;28;20908;-59
2023/12/31 07:00:47;;;;;;;3.50;3.20;;;11.60;56.00;;;;;;4999400;28;20178;-59
2023/12/31 07:03:12;;;;;;;3.57;3.20;;;11.60;56.10;;;;;;4998019;28;20252;-59
2023/12/31 07:05:38;;;;;;;3.43;3.10;;;11.70;56.40;;;;;;4999438;28;20214;-58
2023/12/31 07:08:04;;;;;;;3.90;3.60;;;11.80;55.90;;;;;;5003346;28;20283;-59
2023/12/31 07:10:29;;;;;;;4.30;3.77;;;11.50;55.80;;;;;;5007925;28;20265;-59
2023/12/31 07:12:55;;;;;;;3.67;3.37;;;11.50;56.50;;;;;;5010843;28;20189;-60
2023/12/31 07:15:21;;;;;;;18.63;11.10;;;11.60;56.80;;;;;;5003865;28;20205;-59
2023/12/31 07:17:47;;;;;;;9.10;6.10;;;11.70;56.40;;;;;;5006481;28;20955;-60
2023/12/31 07:20:12;;;;;;;4.53;3.83;;;11.80;56.10;;;;;;5005008;28;20437;-58
2023/12/31 07:22:38;;;;;;;6.23;4.53;;;11.90;56.10;;;;;;5002624;28;20214;-59
2023/12/31 07:25:07;;;;;;;3.57;3.23;;;12.00;55.90;;;;;;5004999;28;20650;-59
2023/12/31 07:27:32;;;;;;;4.90;3.67;;;12.00;55.20;;;;;;5001766;28;20209;-60
2023/12/31 07:29:58;;;;;;;3.70;3.23;;;12.00;55.20;;;;;;4996863;28;20462;-59
2023/12/31 07:32:24;;;;;;;5.90;4.23;;;12.00;55.50;;;;;;4995915;28;20285;-59
2023/12/31 07:34:50;;;;;;;5.10;3.70;;;12.00;55.20;;;;;;5007079;28;20193;-58
2023/12/31 07:37:16;;;;;;;4.23;3.83;;;11.90;55.20;;;;;;5005242;28;20209;-59
2023/12/31 07:39:41;;;;;;;9.97;6.30;;;11.90;55.00;;;;;;4996789;28;20433;-58
2023/12/31 07:42:07;;;;;;;7.10;5.23;;;11.90;55.00;;;;;;5002298;28;20253;-60
2023/12/31 07:44:32;;;;;;;5.10;4.07;;;11.90;55.20;;;;;;5000989;28;20245;-58
2023/12/31 07:46:59;;;;;;;3.57;3.00;;;11.90;55.20;;;;;;4996138;28;20209;-59
2023/12/31 07:49:24;;;;;;;4.33;3.90;;;11.90;55.20;;;;;;5000994;28;20290;-59
2023/12/31 07:51:50;;;;;;;5.83;5.27;;;11.90;54.90;;;;;;5005636;28;20947;-59
2023/12/31 07:54:16;;;;;;;4.97;4.23;;;11.90;54.90;;;;;;5006846;28;20177;-59
2023/12/31 07:56:41;;;;;;;5.50;3.50;;;12.00;55.00;;;;;;5001542;28;20649;-59
2023/12/31 07:59:08;;;;;;;4.70;2.83;;;12.10;55.10;;;;;;4999947;28;20186;-59
2023/12/31 08:01:33;;;;;;;2.77;2.57;;;12.10;55.10;;;;;;5003595;28;20665;-59
2023/12/31 08:03:59;;;;;;;3.20;2.90;;;12.00;54.60;;;;;;5002341;28;20460;-60
2023/12/31 08:06:26;;;;;;;3.00;2.70;;;11.90;55.10;;;;;;4998746;28;20210;-59
2023/12/31 08:08:52;;;;;;;2.63;2.43;;;12.00;55.50;;;;;;5002247;28;20213;-59
2023/12/31 08:11:18;;;;;;;2.87;2.57;;;12.10;54.10;;;;;;5005617;28;20983;-59
2023/12/31 08:13:44;;;;;;;2.60;2.40;;;11.90;54.50;;;;;;5004015;28;20186;-58
2023/12/31 08:16:10;;;;;;;2.37;2.17;;;11.90;55.40;;;;;;5001788;28;20467;-60
2023/12/31 08:18:35;;;;;;;2.50;2.30;;;11.70;54.10;;;;;;5007038;28;20186;-59
2023/12/31 08:21:01;;;;;;;2.30;2.10;;;11.60;54.40;;;;;;5007332;28;20190;-59
2023/12/31 08:23:27;;;;;;;2.63;2.00;;;11.30;54.30;;;;;;5007159;28;20243;-57
2023/12/31 08:25:52;;;;;;;3.43;2.23;;;11.10;54.20;;;;;;5003663;28;20614;-59
2023/12/31 08:28:18;;;;;;;2.30;2.10;;;11.20;55.00;;;;;;5007203;28;20472;-59
2023/12/31 08:30:43;;;;;;;5.00;3.40;;;11.30;55.00;;;;;;5005718;28;20196;-58
2023/12/31 08:33:09;;;;;;;5.00;3.30;;;11.30;54.50;;;;;;5003310;28;20673;-59
2023/12/31 08:35:34;;;;;;;3.43;2.60;;;11.10;55.10;;;;;;5005285;28;20220;-59
2023/12/31 08:38:00;;;;;;;2.60;2.40;;;11.10;55.40;;;;;;5007422;28;20190;-59
2023/12/31 08:40:25;;;;;;;2.30;2.10;;;11.10;55.10;;;;;;5003034;28;20197;-59
2023/12/31 08:42:51;;;;;;;2.50;2.30;;;11.00;54.90;;;;;;5000329;28;20190;-60
2023/12/31 08:45:17;;;;;;;2.33;2.00;;;10.70;55.80;;;;;;4997556;28;20206;-59
2023/12/31 08:47:43;;;;;;;2.00;1.80;;;10.70;56.10;;;;;;5003205;28;20536;-59
2023/12/31 08:50:09;;;;;;;2.23;1.90;;;10.70;56.00;;;;;;5000235;28;20216;-60
2023/12/31 08:52:54;;;;;;;3.30;2.30;;;10.60;55.60;;;;;;4999956;28;20774;-59
2023/12/31 08:55:20;;;;;;;1.83;1.73;;;10.80;56.60;;;;;;4994984;28;20477;-59
2023/12/31 08:57:50;;;;;;;4.40;2.20;;;11.30;55.50;;;;;;4998277;28;20461;-59
2023/12/31 09:00:19;;;;;;;2.50;2.30;;;11.90;54.30;;;;;;5006666;28;20206;-60
2023/12/31 09:02:45;;;;;;;2.07;1.90;;;12.10;52.60;;;;;;5002491;28;20814;-59
2023/12/31 09:05:11;;;;;;;2.13;1.93;;;12.40;52.30;;;;;;4993108;28;20556;-59
2023/12/31 09:07:37;;;;;;;2.30;2.10;;;12.40;51.40;;;;;;5005156;28;20525;-60
2023/12/31 09:10:03;;;;;;;2.97;2.70;;;12.60;51.40;;;;;;5003417;28;20985;-59
2023/12/31 09:12:29;;;;;;;2.97;2.67;;;12.80;51.60;;;;;;5002182;28;20429;-59
2023/12/31 09:14:55;;;;;;;4.17;3.77;;;13.00;51.60;;;;;;4994238;28;20421;-58
2023/12/31 09:17:20;;;;;;;5.17;4.43;;;13.20;52.30;;;;;;4999820;28;20186;-58
2023/12/31 09:19:46;;;;;;;4.50;4.00;;;13.30;51.40;;;;;;5005442;28;20564;-59
2023/12/31 09:22:11;;;;;;;3.23;2.93;;;13.20;51.20;;;;;;5003185;28;20190;-59
2023/12/31 09:24:37;;;;;;;4.47;3.53;;;13.20;50.80;;;;;;4995081;28;20242;-59
2023/12/31 09:27:03;;;;;;;4.10;2.93;;;13.30;50.80;;;;;;4995702;28;20598;-59
2023/12/31 09:29:29;;;;;;;3.03;2.73;;;13.40;50.10;;;;;;5004275;28;20760;-59
2023/12/31 09:31:55;;;;;;;2.77;2.50;;;13.40;50.20;;;;;;5005898;28;20475;-59
2023/12/31 09:34:21;;;;;;;2.33;2.13;;;13.70;50.50;;;;;;5004975;28;20457;-59
2023/12/31 09:36:46;;;;;;;3.20;2.57;;;13.50;49.30;;;;;;4997926;28;20206;-60
2023/12/31 09:39:13;;;;;;;3.20;2.53;;;13.40;49.30;;;;;;5002441;28;20725;-58
2023/12/31 09:41:39;;;;;;;3.20;2.90;;;13.50;50.20;;;;;;4998720;28;20233;-59
2023/12/31 09:44:05;;;;;;;4.17;3.13;;;13.60;49.70;;;;;;4998750;28;20805;-60
2023/12/31 09:46:37;;;;;;;2.77;2.47;;;13.90;49.80;;;;;;5002355;28;20464;-59
2023/12/31 09:49:03;;;;;;;2.27;2.07;;;13.90;49.20;;;;;;4997268;28;20277;-60
2023/12/31 09:51:29;;;;;;;2.20;2.00;;;13.90;49.10;;;;;;4997228;28;20442;-60
2023/12/31 09:53:56;;;;;;;4.70;2.57;;;13.80;48.70;;;;;;4999351;28;20502;-60
2023/12/31 09:56:22;;;;;;;2.40;2.00;;;13.50;48.50;;;;;;4998851;28;20472;-60
2023/12/31 09:58:51;;;;;;;3.40;2.60;;;13.30;48.50;;;;;;5010865;28;20882;-59
2023/12/31 10:01:17;;;;;;;2.70;1.77;;;13.40;48.90;;;;;;5006079;28;20448;-59
2023/12/31 10:03:45;;;;;;;2.37;2.17;;;13.30;48.40;;;;;;5002519;28;21562;-60
2023/12/31 10:06:11;;;;;;;3.17;2.50;;;13.30;49.30;;;;;;4995839;28;20797;-60
2023/12/31 10:08:38;;;;;;;2.50;2.30;;;13.40;48.60;;;;;;4998639;28;20480;-59
2023/12/31 10:11:04;;;;;;;2.57;2.37;;;13.60;48.40;;;;;;5001330;28;20492;-58
2023/12/31 10:13:31;;;;;;;2.20;2.00;;;13.90;48.10;;;;;;5003133;28;20432;-59
2023/12/31 10:15:56;;;;;;;3.20;2.37;;;14.00;47.80;;;;;;5003067;28;20491;-60
2023/12/31 10:18:25;;;;;;;2.53;2.30;;;14.00;47.50;;;;;;5007324;28;20445;-60
2023/12/31 10:20:52;;;;;;;2.77;2.47;;;13.90;47.30;;;;;;5007465;28;20209;-59
2023/12/31 10:23:17;;;;;;;2.93;2.60;;;14.10;47.90;;;;;;5007727;28;20480;-59
2023/12/31 10:25:43;;;;;;;2.50;2.30;;;14.10;46.90;;;;;;5009237;28;21042;-58
2023/12/31 10:28:09;;;;;;;3.57;2.70;;;14.30;47.50;;;;;;5009288;28;20226;-60
2023/12/31 10:30:37;;;;;;;3.30;2.57;;;14.50;47.80;;;;;;5004349;28;20552;-60
2023/12/31 10:33:10;;;;;;;2.40;2.20;;;14.50;47.50;;;;;;5001240;28;20237;-59
2023/12/31 10:35:37;;;;;;;2.60;2.40;;;14.40;47.00;;;;;;5001734;28;20496;-60
2023/12/31 10:38:06;;;;;;;3.63;2.63;;;14.30;47.50;;;;;;4996689;28;20475;-60
2023/12/31 10:40:33;;;;;;;3.60;2.20;;;14.50;47.80;;;;;;5005336;28;20444;-59
2023/12/31 10:42:59;;;;;;;3.10;2.50;;;14.60;47.40;;;;;;5000462;28;20499;-60
2023/12/31 10:45:29;;;;;;;2.47;2.27;;;14.50;47.10;;;;;;5003523;28;20856;-58
2023/12/31 10:48:03;;;;;;;2.10;1.90;;;14.60;47.30;;;;;;5005089;28;20423;-60
2023/12/31 10:50:30;;;;;;;2.93;2.67;;;14.80;46.90;;;;;;5002516;28;21077;-58
2023/12/31 10:52:57;;;;;;;2.87;2.50;;;14.90;47.10;;;;;;5002374;28;20789;-59
2023/12/31 10:55:23;;;;;;;3.10;2.80;;;14.90;46.70;;;;;;5001115;28;20460;-58
2023/12/31 10:57:50;;;;;;;3.27;2.40;;;14.90;47.00;;;;;;5003725;28;20848;-60
2023/12/31 11:00:18;;;;;;;3.10;2.50;;;15.00;46.70;;;;;;5006132;28;20448;-60
2023/12/31 11:02:44;;;;;;;2.63;2.33;;;15.00;46.00;;;;;;5004707;28;20433;-59
2023/12/31 11:05:11;;;;;;;2.40;2.20;;;14.90;45.60;;;;;;5009375;28;20444;-60
2023/12/31 11:07:37;;;;;;;2.20;2.10;;;14.90;46.20;;;;;;5003347;28;20802;-59
2023/12/31 11:10:04;;;;;;;2.50;2.30;;;14.80;46.20;;;;;;5004624;28;20445;-61
2023/12/31 11:12:29;;;;;;;3.40;2.50;;;14.80;46.50;;;;;;5007568;28;20190;-59
2023/12/31 11:15:07;;;;;;;3.70;2.67;;;14.90;47.00;;;;;;4994440;28;20447;-59
2023/12/31 11:17:57;;;;;;;8.80;3.80;;;15.10;46.80;;;;;;5000248;28;20451;-60
2023/12/31 11:20:35;;;;;;;3.30;3.00;;;15.20;46.50;;;;;;5002749;28;20430;-59
2023/12/31 11:23:15;;;;;;;2.70;2.50;;;15.30;46.50;;;;;;5000310;28;20456;-60
2023/12/31 11:25:44;;;;;;;2.73;2.53;;;15.20;46.20;;;;;;5001472;28;20471;-60
2023/12/31 11:28:09;;;;;;;3.10;2.80;;;14.90;46.20;;;;;;5004100;28;20572;-59
2023/12/31 11:30:49;;;;;;;4.50;3.70;;;14.80;47.00;;;;;;4996345;28;20517;-59
2023/12/31 11:33:20;;;;;;;4.00;3.60;;;14.90;47.50;;;;;;5000157;28;20183;-59
2023/12/31 11:35:50;;;;;;;2.90;2.50;;;15.10;47.10;;;;;;5005153;28;20535;-60
2023/12/31 11:38:15;;;;;;;5.67;3.13;;;15.20;46.40;;;;;;5001740;28;20803;-59
2023/12/31 11:40:41;;;;;;;2.20;2.00;;;15.30;46.40;;;;;;4996110;28;20449;-60
2023/12/31 11:43:19;;;;;;;3.53;2.40;;;15.50;46.30;;;;;;5001562;28;20174;-61
2023/12/31 11:45:47;;;;;;;2.30;2.10;;;15.70;46.40;;;;;;4995855;28;20468;-59
2023/12/31 11:48:21;;;;;;;2.60;1.97;;;15.80;46.10;;;;;;5003888;28;20567;-58
2023/12/31 11:50:52;;;;;;;3.60;2.70;;;15.80;45.70;;;;;;5002933;28;20475;-59
2023/12/31 11:53:21;;;;;;;4.90;2.90;;;15.60;46.50;;;;;;5007909;28;20428;-60
2023/12/31 11:55:53;;;;;;;3.17;2.80;;;15.70;46.90;;;;;;5006763;28;20436;-59
2023/12/31 11:58:22;;;;;;;3.37;3.07;;;15.30;47.30;;;;;;5002365;28;20448;-60
2023/12/31 12:00:50;;;;;;;3.87;2.77;;;14.60;50.10;;;;;;5008018;28;20436;-59
2023/12/31 12:03:17;;;;;;;3.03;2.73;;;14.30;52.80;;;;;;5004846;28;20442;-60
2023/12/31 12:05:45;;;;;;;2.17;2.00;;;13.60;56.80;;;;;;5004573;28;20955;-59
2023/12/31 12:08:11;;;;;;;5.73;5.13;;;13.40;59.20;;;;;;5006451;28;20473;-60
2023/12/31 12:10:37;;;;;;;3.90;1.63;;;12.90;60.20;;;;;;5000381;28;20968;-60
2023/12/31 12:13:03;;;;;;;2.20;1.67;;;13.00;60.50;;;;;;5002448;28;20294;-59
2023/12/31 12:15:38;;;;;;;5.67;1.90;;;13.10;60.70;;;;;;5005614;28;20225;-60
2023/12/31 12:18:22;;;;;;;1.63;1.40;;;13.10;61.10;;;;;;5002120;28;20428;-60
2023/12/31 12:20:48;;;;;;;1.17;1.07;;;13.10;61.30;;;;;;5005357;28;20428;-58
2023/12/31 12:23:18;;;;;;;4.20;3.53;;;13.20;61.00;;;;;;5000548;28;20420;-61
2023/12/31 12:25:44;;;;;;;1.50;1.00;;;13.00;61.20;;;;;;5001158;28;20213;-59
2023/12/31 12:28:10;;;;;;;1.43;0.80;;;12.90;61.60;;;;;;5003951;28;20476;-61
2023/12/31 12:30:40;;;;;;;1.23;0.87;;;12.80;62.10;;;;;;4997613;28;20815;-60
2023/12/31 12:33:07;;;;;;;1.60;1.30;;;12.70;62.70;;;;;;5006712;28;20433;-61
2023/12/31 12:35:33;;;;;;;4.30;2.53;;;12.70;63.40;;;;;;5006911;28;20456;-59
2023/12/31 12:37:59;;;;;;;1.90;1.13;;;12.90;63.50;;;;;;5005369;28;20488;-60
2023/12/31 12:40:25;;;;;;;1.10;1.00;;;13.00;63.30;;;;;;5006438;28;20186;-60
2023/12/31 12:42:53;;;;;;;1.30;1.20;;;13.10;63.00;;;;;;5007538;28;20448;-59
2023/12/31 12:45:19;;;;;;;2.10;1.40;;;13.10;62.30;;;;;;5002787;28;20206;-60